Time,TemperatureF,DewpointF,PressureIn,WindDirection,WindDirectionDegrees,WindSpeedMPH,WindSpeedGustMPH,Humidity,HourlyPrecipIn,Conditions,Clouds,dailyrainin,SoftwareType,DateUTC
2013-08-27 00:23:00,72.0,70.0,30.08,SSE,155,0.0,0.0,94,0.00,,,0.00,,2013-08-27 05:23:00,
2013-08-27 00:52:00,71.0,69.0,30.08,SSE,155,0.0,0.0,95,0.00,,,0.00,,2013-08-27 05:52:00,
2013-08-27 01:22:00,71.0,70.0,30.08,SSE,155,0.0,1.0,96,0.00,,,0.00,,2013-08-27 06:22:00,
2013-08-27 01:42:00,71.0,70.0,30.07,SE,145,0.0,1.0,96,0.00,,,0.00,,2013-08-27 06:42:00,
2013-08-27 01:52:00,71.0,70.0,30.07,SE,145,0.0,0.0,96,0.00,,,0.00,,2013-08-27 06:52:00,
2013-08-27 02:12:00,70.0,69.0,30.07,SE,145,0.0,0.0,96,0.00,,,0.00,,2013-08-27 07:12:00,
2013-08-27 02:21:00,70.0,69.0,30.07,SE,145,0.0,0.0,97,0.00,,,0.00,,2013-08-27 07:21:00,
2013-08-27 02:52:00,70.0,69.0,30.07,SE,145,0.0,0.0,97,0.00,,,0.00,,2013-08-27 07:52:00,
2013-08-27 03:11:00,69.0,68.0,30.07,SE,145,0.0,0.0,97,0.00,,,0.00,,2013-08-27 08:11:00,
2013-08-27 03:22:00,69.0,68.0,30.07,SE,145,0.0,0.0,97,0.00,,,0.00,,2013-08-27 08:22:00,
2013-08-27 03:42:00,69.0,68.0,30.07,SE,146,0.0,0.0,97,0.00,,,0.00,,2013-08-27 08:42:00,
2013-08-27 03:52:00,69.0,68.0,30.07,SE,145,0.0,0.0,97,0.00,,,0.00,,2013-08-27 08:52:00,
2013-08-27 04:11:00,68.0,67.0,30.07,SE,145,0.0,1.0,98,0.00,,,0.00,,2013-08-27 09:11:00,
2013-08-27 04:21:00,68.0,67.0,30.07,SE,145,0.0,0.0,98,0.00,,,0.00,,2013-08-27 09:21:00,
2013-08-27 04:54:00,68.0,67.0,30.07,SE,145,0.0,0.0,98,0.00,,,0.00,,2013-08-27 09:54:00,
2013-08-27 05:14:00,67.0,66.0,30.07,SE,145,0.0,0.0,98,0.00,,,0.00,,2013-08-27 10:14:00,
2013-08-27 05:25:00,67.0,66.0,30.06,SE,145,0.0,0.0,98,0.00,,,0.00,,2013-08-27 10:25:00,
2013-08-27 05:43:00,67.0,66.0,30.06,SE,145,0.0,0.0,98,0.00,,,0.00,,2013-08-27 10:43:00,
2013-08-27 05:53:00,67.0,66.0,30.07,SE,145,0.0,0.0,98,0.00,,,0.00,,2013-08-27 10:53:00,
2013-08-27 06:12:00,67.0,66.0,30.07,SE,145,0.0,0.0,98,0.00,,,0.00,,2013-08-27 11:12:00,
2013-08-27 06:22:00,67.0,66.0,30.07,SE,146,0.0,0.0,98,0.00,,,0.00,,2013-08-27 11:22:00,
2013-08-27 06:42:00,67.0,66.0,30.08,SE,145,0.0,0.0,98,0.00,,,0.00,,2013-08-27 11:42:00,
2013-08-27 06:52:00,66.0,65.0,30.08,SE,145,0.0,1.0,98,0.00,,,0.00,,2013-08-27 11:52:00,
2013-08-27 07:12:00,66.0,65.0,30.08,SE,145,0.0,0.0,98,0.00,,,0.00,,2013-08-27 12:12:00,
2013-08-27 07:21:00,66.0,65.0,30.08,SE,145,0.0,0.0,98,0.00,,,0.00,,2013-08-27 12:21:00,
2013-08-27 07:42:00,66.0,66.0,30.09,SE,145,0.0,0.0,99,0.00,,,0.00,,2013-08-27 12:42:00,
2013-08-27 07:52:00,66.0,66.0,30.08,SE,145,0.0,0.0,99,0.00,,,0.00,,2013-08-27 12:52:00,
2013-08-27 08:11:00,67.0,67.0,30.09,SE,145,0.0,0.0,99,0.00,,,0.00,,2013-08-27 13:11:00,
2013-08-27 08:22:00,68.0,68.0,30.09,SE,146,0.0,0.0,99,0.00,,,0.00,,2013-08-27 13:22:00,
2013-08-27 08:52:00,73.0,72.0,30.08,SE,145,0.0,2.0,96,0.00,,,0.00,,2013-08-27 13:52:00,
2013-08-27 09:11:00,75.0,71.0,30.09,SSE,150,0.0,2.0,88,0.00,,,0.00,,2013-08-27 14:11:00,
2013-08-27 09:22:00,77.0,71.0,30.09,SSE,160,1.0,3.0,81,0.00,,,0.00,,2013-08-27 14:22:00,
2013-08-27 09:53:00,78.0,71.0,30.09,SSE,150,0.0,4.0,78,0.00,,,0.00,,2013-08-27 14:53:00,
2013-08-27 10:11:00,79.0,70.0,30.09,WSW,238,2.0,5.0,75,0.00,,,0.00,,2013-08-27 15:11:00,
2013-08-27 10:22:00,81.0,72.0,30.09,West,274,0.0,3.0,73,0.00,,,0.00,,2013-08-27 15:22:00,
2013-08-27 10:45:00,82.0,70.0,30.09,WSW,242,2.0,4.0,67,0.00,,,0.00,,2013-08-27 15:45:00,
2013-08-27 10:58:00,83.0,69.0,30.09,West,267,3.0,6.0,63,0.00,,,0.00,,2013-08-27 15:58:00,
2013-08-27 11:17:00,83.0,69.0,30.09,West,278,3.0,5.0,62,0.00,,,0.00,,2013-08-27 16:17:00,
2013-08-27 11:28:00,84.0,70.0,30.09,West,261,2.0,4.0,62,0.00,,,0.00,,2013-08-27 16:28:00,
2013-08-27 11:55:00,86.0,71.0,30.08,WNW,295,1.0,5.0,62,0.00,,,0.00,,2013-08-27 16:55:00,
2013-08-27 12:13:00,87.0,71.0,30.09,SW,236,1.0,5.0,59,0.00,,,0.00,,2013-08-27 17:13:00,
2013-08-27 12:23:00,88.0,70.0,30.08,West,280,2.0,6.0,55,0.00,,,0.00,,2013-08-27 17:23:00,
2013-08-27 12:52:00,89.0,67.0,30.07,SW,217,3.0,6.0,49,0.00,,,0.00,,2013-08-27 17:52:00,
2013-08-27 13:12:00,89.0,66.0,30.06,SW,235,2.0,5.0,47,0.00,,,0.00,,2013-08-27 18:12:00,
2013-08-27 13:22:00,90.0,64.0,30.06,SW,224,2.0,6.0,42,0.00,,,0.00,,2013-08-27 18:22:00,
2013-08-27 13:52:00,91.0,66.0,30.05,WSW,238,2.0,7.0,44,0.00,,,0.00,,2013-08-27 18:52:00,
2013-08-27 14:11:00,91.0,65.0,30.04,ESE,123,2.0,6.0,42,0.00,,,0.00,,2013-08-27 19:11:00,
2013-08-27 14:22:00,91.0,62.0,30.04,West,263,3.0,7.0,38,0.00,,,0.00,,2013-08-27 19:22:00,
2013-08-27 14:52:00,91.0,67.0,30.02,WNW,297,1.0,6.0,45,0.00,,,0.00,,2013-08-27 19:52:00,
2013-08-27 15:11:00,92.0,66.0,30.02,SSE,159,2.0,7.0,42,0.00,,,0.00,,2013-08-27 20:11:00,